Time;durP1;ratioP1;P1;durP2;ratioP2;P2;SDS_P1;SDS_P2;PMS_P1;PMS_P2;Temp;Humidity;BMP_temperature;BMP_pressure;BME280_temperature;BME280_humidity;BME280_pressure;Samples;Min_cycle;Max_cycle;Signal;HPM_P1;HPM_P2
2023/07/30 00:01:10;;;;;;;6.10;4.77;;;;;;;;;;5121010;28;20493;-77
2023/07/30 00:03:37;;;;;;;3.93;3.57;;;;;;;;;;5120190;28;20430;-78
2023/07/30 00:06:04;;;;;;;4.03;3.63;;;;;;;;;;5120228;28;20452;-78
2023/07/30 00:08:31;;;;;;;9.47;4.27;;;;;;;;;;5119837;28;20449;-78
2023/07/30 00:10:59;;;;;;;7.63;3.27;;;;;;;;;;5120419;28;20473;-77
2023/07/30 00:13:27;;;;;;;4.53;3.80;;;;;;;;;;5119637;28;20434;-77
2023/07/30 00:15:54;;;;;;;3.90;3.60;;;;;;;;;;5119289;28;20944;-77
2023/07/30 00:18:22;;;;;;;4.40;3.03;;;;;;;;;;5119013;28;20485;-78
2023/07/30 00:20:49;;;;;;;4.30;3.83;;;;;;;;;;5118896;28;20459;-77
2023/07/30 00:23:16;;;;;;;3.27;3.00;;;;;;;;;;5119143;28;20823;-77
2023/07/30 00:25:43;;;;;;;3.90;3.50;;;;;;;;;;5119004;28;20463;-78
2023/07/30 00:28:10;;;;;;;7.33;3.90;;;;;;;;;;5118614;28;20438;-77
2023/07/30 00:30:38;;;;;;;4.23;3.83;;;;;;;;;;5118509;28;20452;-77
2023/07/30 00:33:06;;;;;;;4.60;3.90;;;;;;;;;;5118461;28;20473;-77
2023/07/30 00:35:33;;;;;;;4.10;3.07;;;;;;;;;;5118671;28;20795;-77
2023/07/30 00:38:00;;;;;;;4.40;3.50;;;;;;;;;;5118696;28;20553;-77
2023/07/30 00:40:27;;;;;;;3.87;3.10;;;;;;;;;;5118654;28;20471;-78
2023/07/30 00:42:54;;;;;;;4.37;3.40;;;;;;;;;;5118734;28;20469;-77
2023/07/30 00:45:21;;;;;;;5.50;4.03;;;;;;;;;;5118527;28;20445;-78
2023/07/30 00:47:50;;;;;;;4.17;3.57;;;;;;;;;;5118777;28;20442;-77
2023/07/30 00:50:18;;;;;;;5.37;3.90;;;;;;;;;;5118661;28;20456;-77
2023/07/30 00:52:45;;;;;;;4.10;2.97;;;;;;;;;;5118280;28;20839;-77
2023/07/30 00:55:12;;;;;;;7.43;3.57;;;;;;;;;;5118306;28;20549;-77
2023/07/30 00:57:40;;;;;;;3.13;2.83;;;;;;;;;;5118689;28;20595;-78
2023/07/30 01:00:09;;;;;;;3.53;3.10;;;;;;;;;;5118525;28;20589;-77
2023/07/30 01:02:36;;;;;;;4.33;3.87;;;;;;;;;;5117159;28;20482;-77
2023/07/30 01:05:05;;;;;;;3.33;2.80;;;;;;;;;;5117801;28;20964;-77
2023/07/30 01:07:32;;;;;;;4.57;3.27;;;;;;;;;;5118313;28;20445;-77
2023/07/30 01:10:00;;;;;;;5.40;3.40;;;;;;;;;;5118587;28;20446;-78
2023/07/30 01:12:27;;;;;;;3.87;3.57;;;;;;;;;;5117920;28;20466;-77
2023/07/30 01:14:55;;;;;;;4.23;3.60;;;;;;;;;;5118535;28;20453;-77
2023/07/30 01:17:23;;;;;;;3.50;3.20;;;;;;;;;;5118190;28;20460;-77
2023/07/30 01:19:50;;;;;;;3.90;3.20;;;;;;;;;;5117853;28;20485;-77
2023/07/30 01:22:19;;;;;;;4.53;3.10;;;;;;;;;;5117803;28;20474;-77
2023/07/30 01:24:46;;;;;;;6.23;3.93;;;;;;;;;;5117493;28;20460;-77
2023/07/30 01:27:16;;;;;;;2.70;2.50;;;;;;;;;;5117813;28;20800;-78
2023/07/30 01:29:44;;;;;;;3.70;3.40;;;;;;;;;;5117493;28;20446;-78
2023/07/30 01:32:12;;;;;;;6.40;3.60;;;;;;;;;;5117422;28;20461;-77
2023/07/30 01:34:41;;;;;;;4.33;2.97;;;;;;;;;;5117404;28;20454;-77
2023/07/30 01:37:10;;;;;;;3.60;2.60;;;;;;;;;;5116768;28;20934;-77
2023/07/30 01:39:39;;;;;;;3.73;3.33;;;;;;;;;;5116600;28;20481;-77
2023/07/30 01:42:06;;;;;;;6.07;3.47;;;;;;;;;;5116754;28;20481;-77
2023/07/30 01:44:33;;;;;;;9.27;3.60;;;;;;;;;;5116772;28;20780;-77
2023/07/30 01:47:01;;;;;;;4.23;3.40;;;;;;;;;;5116458;28;20441;-76
2023/07/30 01:49:28;;;;;;;3.80;3.27;;;;;;;;;;5116835;28;20452;-77
2023/07/30 01:51:55;;;;;;;6.20;3.50;;;;;;;;;;5116164;28;20480;-77
2023/07/30 01:54:22;;;;;;;4.70;3.40;;;;;;;;;;5116240;28;20434;-77
2023/07/30 01:56:51;;;;;;;8.30;3.93;;;;;;;;;;5116132;28;20460;-77
2023/07/30 01:59:18;;;;;;;6.87;3.93;;;;;;;;;;5115830;28;20489;-77
2023/07/30 02:01:45;;;;;;;3.97;2.93;;;;;;;;;;5116375;28;20469;-77
2023/07/30 02:04:12;;;;;;;3.70;3.33;;;;;;;;;;5115811;28;20446;-76
2023/07/30 02:06:39;;;;;;;3.83;3.43;;;;;;;;;;5116121;28;20826;-77
2023/07/30 02:09:06;;;;;;;4.73;3.63;;;;;;;;;;5115662;28;20449;-77
2023/07/30 02:11:33;;;;;;;5.80;3.50;;;;;;;;;;5115808;28;20836;-77
2023/07/30 02:14:02;;;;;;;7.80;3.90;;;;;;;;;;5115446;28;20451;-77
2023/07/30 02:16:29;;;;;;;3.73;3.10;;;;;;;;;;5115832;28;20450;-77
2023/07/30 02:18:56;;;;;;;5.53;3.53;;;;;;;;;;5115689;28;20492;-77
2023/07/30 02:21:23;;;;;;;4.23;3.70;;;;;;;;;;5115850;28;20561;-77
2023/07/30 02:23:50;;;;;;;3.67;3.30;;;;;;;;;;5115752;28;20506;-77
2023/07/30 02:26:17;;;;;;;4.90;3.73;;;;;;;;;;5115794;28;20926;-77
2023/07/30 02:28:44;;;;;;;3.77;3.30;;;;;;;;;;5115772;28;20437;-77
2023/07/30 02:31:13;;;;;;;4.60;4.00;;;;;;;;;;5115473;28;21004;-76
2023/07/30 02:33:40;;;;;;;5.40;3.30;;;;;;;;;;5116059;28;20922;-77
2023/07/30 02:36:07;;;;;;;4.10;3.70;;;;;;;;;;5115445;28;20536;-77
2023/07/30 02:38:34;;;;;;;3.30;3.00;;;;;;;;;;5115092;28;20481;-77
2023/07/30 02:41:01;;;;;;;5.57;3.53;;;;;;;;;;5115421;28;20835;-77
2023/07/30 02:43:29;;;;;;;5.10;3.00;;;;;;;;;;5115066;28;20454;-77
2023/07/30 02:45:56;;;;;;;4.53;3.33;;;;;;;;;;5115202;28;20790;-77
2023/07/30 02:48:24;;;;;;;6.43;3.17;;;;;;;;;;5115281;28;20461;-77
2023/07/30 02:50:51;;;;;;;3.17;2.90;;;;;;;;;;5115059;28;20453;-77
2023/07/30 02:53:19;;;;;;;4.13;2.33;;;;;;;;;;5114873;28;20438;-77
2023/07/30 02:55:46;;;;;;;3.97;2.53;;;;;;;;;;5114960;28;20446;-77
2023/07/30 02:58:13;;;;;;;5.83;2.60;;;;;;;;;;5115064;28;20925;-77
2023/07/30 03:00:40;;;;;;;3.20;2.07;;;;;;;;;;5114684;28;20496;-77
2023/07/30 03:03:07;;;;;;;4.17;2.57;;;;;;;;;;5114800;28;20485;-77
2023/07/30 03:05:35;;;;;;;5.00;2.50;;;;;;;;;;5115267;28;20541;-77
2023/07/30 03:08:03;;;;;;;3.00;2.40;;;;;;;;;;5115083;28;20773;-77
2023/07/30 03:10:30;;;;;;;4.93;3.10;;;;;;;;;;5115128;28;20442;-77
2023/07/30 03:12:57;;;;;;;4.60;2.77;;;;;;;;;;5115158;28;20829;-76
2023/07/30 03:15:24;;;;;;;2.60;2.37;;;;;;;;;;5115372;28;20449;-77
2023/07/30 03:17:51;;;;;;;4.47;2.70;;;;;;;;;;5115011;28;20809;-76
2023/07/30 03:20:19;;;;;;;4.17;2.50;;;;;;;;;;5114446;28;20486;-77
2023/07/30 03:22:47;;;;;;;3.50;2.90;;;;;;;;;;5114644;28;20518;-78
2023/07/30 03:25:14;;;;;;;2.60;2.10;;;;;;;;;;5114201;28;20449;-77
2023/07/30 03:27:41;;;;;;;4.27;2.70;;;;;;;;;;5114743;28;20451;-78
2023/07/30 03:30:09;;;;;;;4.53;2.57;;;;;;;;;;5115048;28;20805;-77
2023/07/30 03:32:36;;;;;;;3.27;2.40;;;;;;;;;;5114746;28;20477;-77
2023/07/30 03:35:03;;;;;;;3.83;2.30;;;;;;;;;;5114807;28;20847;-77
2023/07/30 03:37:30;;;;;;;6.60;3.30;;;;;;;;;;5114939;28;20506;-76
2023/07/30 03:39:59;;;;;;;4.53;2.50;;;;;;;;;;5115081;28;20481;-77
2023/07/30 03:42:26;;;;;;;2.50;2.20;;;;;;;;;;5114447;28;20465;-77
2023/07/30 03:44:53;;;;;;;2.33;2.13;;;;;;;;;;5114285;28;20445;-77
2023/07/30 03:47:20;;;;;;;2.90;2.10;;;;;;;;;;5114955;28;20440;-77
2023/07/30 03:49:47;;;;;;;3.97;2.57;;;;;;;;;;5114303;28;20450;-77
2023/07/30 03:52:15;;;;;;;2.50;2.30;;;;;;;;;;5114532;28;20476;-77
2023/07/30 03:54:42;;;;;;;7.73;2.60;;;;;;;;;;5114559;28;20449;-77
2023/07/30 03:57:10;;;;;;;2.67;2.47;;;;;;;;;;5113340;28;20949;-77
2023/07/30 03:59:37;;;;;;;4.93;2.03;;;;;;;;;;5113029;28;20496;-77
2023/07/30 04:02:05;;;;;;;2.87;2.50;;;;;;;;;;5113663;28;20965;-77
2023/07/30 04:04:32;;;;;;;4.53;3.00;;;;;;;;;;5113449;28;20774;-77
2023/07/30 04:06:59;;;;;;;4.93;2.43;;;;;;;;;;5113117;28;20448;-77
2023/07/30 04:09:26;;;;;;;2.70;2.20;;;;;;;;;;5112707;28;20939;-76
2023/07/30 04:11:53;;;;;;;3.53;2.27;;;;;;;;;;5113377;28;20473;-77
2023/07/30 04:14:22;;;;;;;2.87;2.20;;;;;;;;;;5112961;28;20468;-77
2023/07/30 04:16:49;;;;;;;4.23;2.40;;;;;;;;;;5113417;28;20456;-77
2023/07/30 04:19:16;;;;;;;4.23;2.90;;;;;;;;;;5113196;28;20946;-77
2023/07/30 04:21:43;;;;;;;3.70;2.80;;;;;;;;;;5113298;28;20465;-77
2023/07/30 04:24:10;;;;;;;3.77;2.63;;;;;;;;;;5113578;28;20825;-77
2023/07/30 04:26:37;;;;;;;2.90;2.50;;;;;;;;;;5113105;28;20449;-77
2023/07/30 04:29:04;;;;;;;4.07;2.50;;;;;;;;;;5112686;28;20467;-77
2023/07/30 04:31:33;;;;;;;3.97;2.70;;;;;;;;;;5113473;28;20468;-77
2023/07/30 04:34:00;;;;;;;2.87;2.57;;;;;;;;;;5112818;28;20471;-77
2023/07/30 04:36:27;;;;;;;2.60;2.30;;;;;;;;;;5113264;28;20926;-76
2023/07/30 04:38:55;;;;;;;3.53;2.77;;;;;;;;;;5116857;28;20548;-76
2023/07/30 04:41:22;;;;;;;3.80;2.87;;;;;;;;;;5116260;28;20489;-77
2023/07/30 04:43:49;;;;;;;3.03;2.30;;;;;;;;;;5116617;28;20477;-77
2023/07/30 04:46:16;;;;;;;8.60;2.83;;;;;;;;;;5116107;28;20434;-76
2023/07/30 04:48:45;;;;;;;3.20;2.90;;;;;;;;;;5116269;28;20456;-77
2023/07/30 04:51:12;;;;;;;3.83;3.03;;;;;;;;;;5116294;28;20522;-76
2023/07/30 04:53:39;;;;;;;4.53;3.07;;;;;;;;;;5116515;28;20923;-77
2023/07/30 04:56:06;;;;;;;2.60;2.40;;;;;;;;;;5116288;28;20453;-77
2023/07/30 04:58:33;;;;;;;3.87;2.90;;;;;;;;;;5116149;28;20946;-77
2023/07/30 05:01:00;;;;;;;6.60;3.17;;;;;;;;;;5116364;28;20499;-77
2023/07/30 05:03:27;;;;;;;4.40;3.33;;;;;;;;;;5116394;28;20453;-76
2023/07/30 05:05:56;;;;;;;2.70;2.33;;;;;;;;;;5116088;28;20442;-77
2023/07/30 05:08:23;;;;;;;7.70;2.87;;;;;;;;;;5116066;28;20542;-77
2023/07/30 05:10:50;;;;;;;3.03;2.73;;;;;;;;;;5116322;28;20452;-77
2023/07/30 05:13:17;;;;;;;2.57;2.20;;;;;;;;;;5115948;28;20454;-78
2023/07/30 05:15:44;;;;;;;3.27;2.50;;;;;;;;;;5116867;28;20456;-78
2023/07/30 05:18:13;;;;;;;3.80;2.30;;;;;;;;;;5116500;28;20964;-77
2023/07/30 05:20:40;;;;;;;3.60;2.27;;;;;;;;;;5115907;28;20481;-77
2023/07/30 05:23:09;;;;;;;3.70;2.53;;;;;;;;;;5116105;28;20438;-77
2023/07/30 05:25:36;;;;;;;6.43;2.60;;;;;;;;;;5115577;28;20627;-77
2023/07/30 05:28:03;;;;;;;4.97;2.60;;;;;;;;;;5116068;28;20814;-77
2023/07/30 05:30:30;;;;;;;4.27;2.20;;;;;;;;;;5115656;28;20450;-76
2023/07/30 05:32:57;;;;;;;2.67;2.33;;;;;;;;;;5115498;28;20473;-76
2023/07/30 05:35:24;;;;;;;4.80;2.57;;;;;;;;;;5115390;28;20460;-77
2023/07/30 05:37:51;;;;;;;4.03;2.80;;;;;;;;;;5115635;28;20451;-77
2023/07/30 05:40:20;;;;;;;4.53;2.97;;;;;;;;;;5115811;28;20485;-77
2023/07/30 05:42:47;;;;;;;2.57;2.30;;;;;;;;;;5115544;28;20525;-77
2023/07/30 05:45:14;;;;;;;2.77;2.20;;;;;;;;;;5116018;28;20449;-77
2023/07/30 05:47:41;;;;;;;3.60;2.30;;;;;;;;;;5115451;28;20442;-77
2023/07/30 05:50:09;;;;;;;3.57;3.07;;;;;;;;;;5115496;28;20449;-77
2023/07/30 05:52:36;;;;;;;5.30;2.50;;;;;;;;;;5115334;28;20937;-77
2023/07/30 05:55:03;;;;;;;2.37;2.10;;;;;;;;;;5115361;28;20459;-77
2023/07/30 05:57:32;;;;;;;3.43;2.47;;;;;;;;;;5115407;28;20450;-76
2023/07/30 05:59:59;;;;;;;2.70;2.20;;;;;;;;;;5115061;28;20493;-77
2023/07/30 06:02:26;;;;;;;2.33;2.00;;;;;;;;;;5116423;28;20469;-77
2023/07/30 06:04:53;;;;;;;2.67;2.30;;;;;;;;;;5116743;28;20521;-77
2023/07/30 06:07:20;;;;;;;2.60;2.17;;;;;;;;;;5116890;28;20514;-78
2023/07/30 06:09:48;;;;;;;2.80;2.50;;;;;;;;;;5117646;28;20472;-78
2023/07/30 06:12:15;;;;;;;4.33;2.57;;;;;;;;;;5116875;28;20569;-78
2023/07/30 06:14:43;;;;;;;2.23;2.03;;;;;;;;;;5117663;28;20474;-78
2023/07/30 06:17:10;;;;;;;2.80;2.47;;;;;;;;;;5116743;28;20449;-77
2023/07/30 06:19:38;;;;;;;3.50;2.73;;;;;;;;;;5117205;28;20470;-78
2023/07/30 06:22:05;;;;;;;2.63;2.33;;;;;;;;;;5115814;28;20481;-77
2023/07/30 06:24:32;;;;;;;2.73;2.33;;;;;;;;;;5115938;28;20438;-78
2023/07/30 06:26:59;;;;;;;2.77;2.57;;;;;;;;;;5115054;28;20449;-78
2023/07/30 06:29:26;;;;;;;3.30;2.60;;;;;;;;;;5115064;28;20456;-77
2023/07/30 06:31:55;;;;;;;3.10;2.73;;;;;;;;;;5115009;28;20462;-78
2023/07/30 06:34:22;;;;;;;3.90;3.10;;;;;;;;;;5115136;28;20808;-77
2023/07/30 06:36:49;;;;;;;4.10;3.03;;;;;;;;;;5114073;28;20469;-77
2023/07/30 06:39:16;;;;;;;3.77;2.90;;;;;;;;;;5114750;28;20438;-77
2023/07/30 06:41:43;;;;;;;2.77;2.57;;;;;;;;;;5115223;28;20958;-78
2023/07/30 06:44:10;;;;;;;2.60;2.40;;;;;;;;;;5115519;28;20515;-78
2023/07/30 06:46:38;;;;;;;2.83;2.53;;;;;;;;;;5116486;28;20446;-78
2023/07/30 06:49:06;;;;;;;2.90;2.60;;;;;;;;;;5116988;28;20456;-79
2023/07/30 06:51:33;;;;;;;2.87;2.33;;;;;;;;;;5116475;28;20472;-78
2023/07/30 06:54:00;;;;;;;3.70;3.00;;;;;;;;;;5117228;28;20449;-78
2023/07/30 06:56:27;;;;;;;4.53;2.83;;;;;;;;;;5117454;28;20456;-79
2023/07/30 06:58:55;;;;;;;3.30;2.50;;;;;;;;;;5115809;28;20941;-78
2023/07/30 07:01:22;;;;;;;2.57;2.33;;;;;;;;;;5116216;28;20481;-79
2023/07/30 07:03:49;;;;;;;3.07;2.33;;;;;;;;;;5116152;28;20436;-79
2023/07/30 07:06:17;;;;;;;3.90;2.77;;;;;;;;;;5116764;28;20476;-79
2023/07/30 07:08:45;;;;;;;3.50;2.20;;;;;;;;;;5116297;28;20479;-79
2023/07/30 07:11:12;;;;;;;2.37;2.17;;;;;;;;;;5116237;28;20564;-79
2023/07/30 07:13:39;;;;;;;2.20;1.90;;;;;;;;;;5115895;28;20445;-79
2023/07/30 07:16:06;;;;;;;1.90;1.70;;;;;;;;;;5115326;28;20453;-79
2023/07/30 07:18:33;;;;;;;2.57;2.10;;;;;;;;;;5115630;28;20459;-79
2023/07/30 07:21:00;;;;;;;3.03;1.80;;;;;;;;;;5116217;28;20235;-79
2023/07/30 07:23:29;;;;;;;3.20;2.10;;;;;;;;;;5116221;28;20628;-78
2023/07/30 07:25:56;;;;;;;3.50;2.40;;;;;;;;;;5115901;28;20203;-78
2023/07/30 07:28:23;;;;;;;1.97;1.87;;;;;;;;;;5115934;28;20223;-79
2023/07/30 07:30:50;;;;;;;2.63;2.10;;;;;;;;;;5116034;28;20221;-78
2023/07/30 07:33:18;;;;;;;2.10;1.90;;;;;;;;;;5115951;28;20846;-78
2023/07/30 07:35:45;;;;;;;3.50;2.10;;;;;;;;;;5115205;28;20516;-78
2023/07/30 07:38:12;;;;;;;3.20;1.97;;;;;;;;;;5115706;28;20471;-78
2023/07/30 07:40:41;;;;;;;2.30;2.10;;;;;;;;;;5115014;28;20589;-78
2023/07/30 07:43:08;;;;;;;3.17;2.40;;;;;;;;;;5115270;28;20453;-78
2023/07/30 07:45:36;;;;;;;2.67;2.27;;;;;;;;;;5115173;28;20461;-79
2023/07/30 07:48:03;;;;;;;3.50;2.47;;;;;;;;;;5115558;28;20442;-78
2023/07/30 07:50:30;;;;;;;2.40;2.17;;;;;;;;;;5115294;28;20448;-79
2023/07/30 07:52:57;;;;;;;4.13;2.03;;;;;;;;;;5115669;28;20466;-78
2023/07/30 07:55:24;;;;;;;5.40;2.27;;;;;;;;;;5115242;28;20460;-78
2023/07/30 07:57:53;;;;;;;2.23;2.03;;;;;;;;;;5115092;28;20946;-79
2023/07/30 08:00:20;;;;;;;6.30;2.13;;;;;;;;;;5114869;28;20893;-79
2023/07/30 08:02:47;;;;;;;2.80;1.80;;;;;;;;;;5115306;28;20970;-79
2023/07/30 08:05:15;;;;;;;3.93;2.17;;;;;;;;;;5112668;28;20492;-78
2023/07/30 08:07:42;;;;;;;2.90;2.30;;;;;;;;;;5113803;28;20445;-78
2023/07/30 08:10:10;;;;;;;3.00;2.57;;;;;;;;;;5113554;28;20973;-78
2023/07/30 08:12:38;;;;;;;2.70;2.27;;;;;;;;;;5117966;28;20530;-79
2023/07/30 08:15:07;;;;;;;5.43;3.10;;;;;;;;;;5117710;28;20453;-79
2023/07/30 08:17:34;;;;;;;2.10;1.80;;;;;;;;;;5117770;28;20459;-78
2023/07/30 08:20:01;;;;;;;3.10;2.37;;;;;;;;;;5118128;28;20789;-79
2023/07/30 08:22:28;;;;;;;2.40;2.10;;;;;;;;;;5117438;28;20820;-78
2023/07/30 08:24:55;;;;;;;2.37;2.00;;;;;;;;;;5117628;28;20449;-78
2023/07/30 08:27:22;;;;;;;2.50;2.30;;;;;;;;;;5117819;28;20794;-78
2023/07/30 08:29:49;;;;;;;2.70;1.90;;;;;;;;;;5117771;28;20437;-78
2023/07/30 08:32:18;;;;;;;2.50;2.27;;;;;;;;;;5117109;28;20476;-76
2023/07/30 08:34:45;;;;;;;3.57;1.90;;;;;;;;;;5117015;28;20469;-78
2023/07/30 08:37:12;;;;;;;2.30;2.00;;;;;;;;;;5116986;28;20473;-78
2023/07/30 08:39:39;;;;;;;2.63;2.30;;;;;;;;;;5117172;28;20804;-76
2023/07/30 08:42:06;;;;;;;2.70;1.93;;;;;;;;;;5116884;28;20513;-77
2023/07/30 08:44:35;;;;;;;2.50;2.03;;;;;;;;;;5114287;28;20553;-77
2023/07/30 08:47:02;;;;;;;2.60;1.83;;;;;;;;;;5114596;28;20797;-77
2023/07/30 08:49:33;;;;;;;3.30;2.10;;;;;;;;;;5115419;28;20465;-77
2023/07/30 08:52:00;;;;;;;2.07;1.87;;;;;;;;;;5115062;28;20476;-77
2023/07/30 08:54:28;;;;;;;3.40;1.70;;;;;;;;;;5115512;28;20453;-77
2023/07/30 08:56:55;;;;;;;1.80;1.57;;;;;;;;;;5115105;28;20457;-77
2023/07/30 08:59:23;;;;;;;2.27;1.60;;;;;;;;;;5115516;28;20458;-77
2023/07/30 09:01:52;;;;;;;3.13;1.60;;;;;;;;;;5115226;28;20853;-76
2023/07/30 09:04:19;;;;;;;1.60;1.50;;;;;;;;;;5115255;28;20452;-77
2023/07/30 09:06:50;;;;;;;2.30;1.80;;;;;;;;;;5114972;28;20456;-76
2023/07/30 09:09:18;;;;;;;2.27;1.80;;;;;;;;;;5115075;28;20438;-77
2023/07/30 09:11:45;;;;;;;3.00;2.20;;;;;;;;;;5114905;28;20972;-77
2023/07/30 09:14:12;;;;;;;2.53;2.33;;;;;;;;;;5115169;28;20457;-77
2023/07/30 09:16:39;;;;;;;2.33;1.87;;;;;;;;;;5115146;28;20938;-76
2023/07/30 09:19:08;;;;;;;2.33;2.13;;;;;;;;;;5115117;28;20482;-77
2023/07/30 09:21:35;;;;;;;2.60;1.90;;;;;;;;;;5114958;28;20933;-77
2023/07/30 09:24:06;;;;;;;3.30;2.20;;;;;;;;;;5114078;28;20461;-77
2023/07/30 09:26:41;;;;;;;4.53;1.93;;;;;;;;;;5114819;28;20434;-77
2023/07/30 09:29:09;;;;;;;2.03;1.83;;;;;;;;;;5114713;28;20459;-76
2023/07/30 09:31:45;;;;;;;4.53;2.50;;;;;;;;;;5114036;28;20846;-77
2023/07/30 09:34:12;;;;;;;3.00;2.50;;;;;;;;;;5114724;28;20195;-77
2023/07/30 09:36:39;;;;;;;4.10;2.00;;;;;;;;;;5114403;28;20446;-77
2023/07/30 09:39:15;;;;;;;2.13;1.80;;;;;;;;;;5114678;28;20953;-77
2023/07/30 09:41:43;;;;;;;2.80;2.57;;;;;;;;;;5114331;28;20492;-76
2023/07/30 09:44:10;;;;;;;2.50;1.77;;;;;;;;;;5115293;28;20446;-77
2023/07/30 09:46:43;;;;;;;3.67;1.85;;;;;;;;;;5114746;28;20496;-77
2023/07/30 09:49:10;;;;;;;3.00;2.70;;;;;;;;;;5114792;28;20215;-76
2023/07/30 09:51:38;;;;;;;6.93;2.40;;;;;;;;;;5114358;28;20793;-77
2023/07/30 09:54:05;;;;;;;2.73;2.30;;;;;;;;;;5114486;28;20514;-76
2023/07/30 09:56:34;;;;;;;2.63;1.53;;;;;;;;;;5114374;28;20453;-77
2023/07/30 09:59:01;;;;;;;1.80;1.60;;;;;;;;;;5114215;28;20457;-77
2023/07/30 10:01:29;;;;;;;2.47;1.87;;;;;;;;;;5113814;28;20494;-77
2023/07/30 10:03:58;;;;;;;1.90;1.57;;;;;;;;;;5114248;28;20456;-77
2023/07/30 10:06:25;;;;;;;2.40;1.90;;;;;;;;;;5114300;28;20449;-77
2023/07/30 10:08:54;;;;;;;2.63;2.20;;;;;;;;;;5113857;28;20819;-77
2023/07/30 10:11:22;;;;;;;2.13;1.70;;;;;;;;;;5113628;28;20466;-76
2023/07/30 10:13:51;;;;;;;2.00;1.77;;;;;;;;;;5113849;28;20824;-77
2023/07/30 10:16:18;;;;;;;1.70;1.60;;;;;;;;;;5114057;28;20465;-77
2023/07/30 10:18:45;;;;;;;2.20;1.83;;;;;;;;;;5113482;28;20477;-77
2023/07/30 10:21:23;;;;;;;1.90;1.50;;;;;;;;;;5113729;28;21000;-77
2023/07/30 10:23:59;;;;;;;6.53;1.90;;;;;;;;;;5113798;28;20491;-77
2023/07/30 10:26:28;;;;;;;2.90;2.60;;;;;;;;;;5114163;28;20437;-77
2023/07/30 10:29:11;;;;;;;2.03;1.83;;;;;;;;;;5113717;28;20953;-77
2023/07/30 10:31:41;;;;;;;2.37;2.17;;;;;;;;;;5113331;28;20472;-77
2023/07/30 10:34:09;;;;;;;2.23;1.90;;;;;;;;;;5113583;28;20477;-77
2023/07/30 10:36:42;;;;;;;2.27;2.03;;;;;;;;;;5113639;28;20454;-77
2023/07/30 10:39:13;;;;;;;3.10;2.30;;;;;;;;;;5113772;28;20483;-77
2023/07/30 10:41:40;;;;;;;2.17;1.80;;;;;;;;;;5113032;28;20489;-77
2023/07/30 10:44:08;;;;;;;2.33;1.87;;;;;;;;;;5113249;28;20449;-77
2023/07/30 10:46:36;;;;;;;2.90;1.73;;;;;;;;;;5113434;28;20433;-77
2023/07/30 10:49:06;;;;;;;4.83;2.40;;;;;;;;;;5113340;28;20430;-77
2023/07/30 10:51:33;;;;;;;3.50;1.77;;;;;;;;;;5113472;28;20541;-77
2023/07/30 10:54:00;;;;;;;3.17;1.83;;;;;;;;;;5113055;28;20449;-77
2023/07/30 10:56:27;;;;;;;1.80;1.70;;;;;;;;;;5112893;28;20446;-77
2023/07/30 10:58:55;;;;;;;3.03;1.80;;;;;;;;;;5112875;28;20461;-77
2023/07/30 11:01:26;;;;;;;3.77;2.00;;;;;;;;;;5112878;28;20496;-77
2023/07/30 11:03:53;;;;;;;2.17;1.87;;;;;;;;;;5113162;28;20484;-77
2023/07/30 11:06:24;;;;;;;2.30;2.10;;;;;;;;;;5113206;28;20533;-77
2023/07/30 11:08:51;;;;;;;2.57;1.80;;;;;;;;;;5113008;28;20456;-77
2023/07/30 11:11:19;;;;;;;1.93;1.73;;;;;;;;;;5112907;28;21051;-77
2023/07/30 11:13:47;;;;;;;3.33;2.33;;;;;;;;;;5113127;28;20902;-77
2023/07/30 11:16:15;;;;;;;4.23;3.57;;;;;;;;;;5113311;28;20956;-77
2023/07/30 11:18:46;;;;;;;2.70;2.50;;;;;;;;;;5112924;28;20449;-77
2023/07/30 11:21:14;;;;;;;1.93;1.67;;;;;;;;;;5112865;28;20483;-78
2023/07/30 11:23:41;;;;;;;2.43;2.23;;;;;;;;;;5113939;28;20775;-76
2023/07/30 11:26:09;;;;;;;5.17;2.70;;;;;;;;;;5114224;28;20886;-77
2023/07/30 11:28:37;;;;;;;2.60;2.07;;;;;;;;;;5113878;28;20453;-77
2023/07/30 11:31:05;;;;;;;2.87;2.60;;;;;;;;;;5113218;28;20480;-77
2023/07/30 11:33:33;;;;;;;2.40;1.87;;;;;;;;;;5113276;28;20525;-77
2023/07/30 11:36:02;;;;;;;3.07;1.70;;;;;;;;;;5113651;28;20450;-77
2023/07/30 11:38:29;;;;;;;2.10;1.90;;;;;;;;;;5114045;28;20448;-77
2023/07/30 11:40:57;;;;;;;4.80;2.53;;;;;;;;;;5113467;28;20475;-77
2023/07/30 11:43:24;;;;;;;2.50;2.00;;;;;;;;;;5113346;28;20932;-77
2023/07/30 11:46:07;;;;;;;2.40;2.20;;;;;;;;;;5114723;28;20457;-77
2023/07/30 11:48:34;;;;;;;2.30;1.90;;;;;;;;;;5117286;28;20478;-77
2023/07/30 11:51:03;;;;;;;3.40;2.20;;;;;;;;;;5117127;28;20496;-77
2023/07/30 11:53:45;;;;;;;2.50;1.90;;;;;;;;;;5117418;28;20501;-77
2023/07/30 11:56:16;;;;;;;3.10;2.80;;;;;;;;;;5117843;28;20823;-77
2023/07/30 11:58:43;;;;;;;2.77;2.43;;;;;;;;;;5116896;28;20469;-77
2023/07/30 12:01:10;;;;;;;2.07;1.83;;;;;;;;;;5117279;28;20817;-77
2023/07/30 12:03:39;;;;;;;3.07;2.77;;;;;;;;;;5116401;28;20500;-77
2023/07/30 12:06:07;;;;;;;2.27;2.07;;;;;;;;;;5116807;28;20808;-77
2023/07/30 12:08:35;;;;;;;4.63;2.30;;;;;;;;;;5116773;28;20472;-77
2023/07/30 12:11:04;;;;;;;2.03;1.83;;;;;;;;;;5116536;28;20480;-77
2023/07/30 12:13:32;;;;;;;3.70;2.00;;;;;;;;;;5116538;28;20457;-77
2023/07/30 12:15:59;;;;;;;2.60;1.93;;;;;;;;;;5116457;28;20460;-77
2023/07/30 12:18:27;;;;;;;2.23;2.00;;;;;;;;;;5116368;28;20452;-77
2023/07/30 12:20:55;;;;;;;2.70;2.10;;;;;;;;;;5115953;28;21006;-77
2023/07/30 12:23:23;;;;;;;1.70;1.50;;;;;;;;;;5116393;28;20538;-77
2023/07/30 12:25:52;;;;;;;2.40;1.77;;;;;;;;;;5117705;28;20445;-77
2023/07/30 12:28:20;;;;;;;2.00;1.73;;;;;;;;;;5116837;28;20450;-77
2023/07/30 12:30:47;;;;;;;2.47;1.93;;;;;;;;;;5116587;28;21015;-77
2023/07/30 12:33:14;;;;;;;2.40;2.00;;;;;;;;;;5117036;28;20452;-77
2023/07/30 12:35:41;;;;;;;4.70;2.43;;;;;;;;;;5116929;28;20467;-77
2023/07/30 12:38:08;;;;;;;3.73;2.27;;;;;;;;;;5116647;28;20449;-77
2023/07/30 12:40:37;;;;;;;1.73;1.47;;;;;;;;;;5116303;28;20457;-77
2023/07/30 12:43:04;;;;;;;1.87;1.60;;;;;;;;;;5116019;28;21008;-77
2023/07/30 12:45:32;;;;;;;2.60;2.10;;;;;;;;;;5116960;28;20460;-77
2023/07/30 12:47:59;;;;;;;2.20;2.00;;;;;;;;;;5116954;28;20895;-77
2023/07/30 12:50:26;;;;;;;4.30;2.10;;;;;;;;;;5116786;28;20449;-77
2023/07/30 12:52:53;;;;;;;2.00;1.80;;;;;;;;;;5115766;28;20520;-77
2023/07/30 12:55:21;;;;;;;2.27;2.07;;;;;;;;;;5115468;28;20452;-77
2023/07/30 12:57:49;;;;;;;3.80;1.90;;;;;;;;;;5114316;28;20476;-77
2023/07/30 13:00:18;;;;;;;1.90;1.60;;;;;;;;;;5115498;28;20819;-77
2023/07/30 13:02:45;;;;;;;1.83;1.67;;;;;;;;;;5115536;28;20485;-77
2023/07/30 13:05:13;;;;;;;2.33;1.90;;;;;;;;;;5115607;28;20460;-77
2023/07/30 13:07:40;;;;;;;2.43;2.17;;;;;;;;;;5115752;28;20503;-77
2023/07/30 13:10:08;;;;;;;2.60;2.10;;;;;;;;;;5115802;28;20460;-77
2023/07/30 13:12:36;;;;;;;3.50;1.77;;;;;;;;;;5116108;28;20842;-77
2023/07/30 13:15:05;;;;;;;3.50;1.70;;;;;;;;;;5116061;28;20456;-77
2023/07/30 13:17:32;;;;;;;2.60;2.30;;;;;;;;;;5115203;28;20537;-77
2023/07/30 13:19:59;;;;;;;2.43;2.23;;;;;;;;;;5115494;28;20445;-76
2023/07/30 13:22:26;;;;;;;2.40;1.50;;;;;;;;;;5115108;28;20549;-77
2023/07/30 13:24:53;;;;;;;2.27;2.07;;;;;;;;;;5115298;28;20516;-76
2023/07/30 13:27:21;;;;;;;2.40;2.17;;;;;;;;;;5114949;28;20456;-77
2023/07/30 13:29:48;;;;;;;3.70;2.00;;;;;;;;;;5115461;28;20449;-77
2023/07/30 13:32:17;;;;;;;2.27;2.00;;;;;;;;;;5115170;28;20470;-77
2023/07/30 13:34:44;;;;;;;2.23;2.03;;;;;;;;;;5114982;28;20446;-77
2023/07/30 13:37:12;;;;;;;2.53;2.13;;;;;;;;;;5114615;28;20465;-76
2023/07/30 13:39:39;;;;;;;3.43;3.13;;;;;;;;;;5114842;28;20445;-77
2023/07/30 13:42:06;;;;;;;1.93;1.70;;;;;;;;;;5115078;28;20542;-76
2023/07/30 13:44:33;;;;;;;2.10;1.90;;;;;;;;;;5115060;28;20444;-77
2023/07/30 13:47:00;;;;;;;2.00;1.70;;;;;;;;;;5115383;28;20446;-77
2023/07/30 13:49:29;;;;;;;3.53;1.90;;;;;;;;;;5114655;28;20449;-77
2023/07/30 13:51:56;;;;;;;2.50;2.20;;;;;;;;;;5113364;28;20473;-77
2023/07/30 13:54:23;;;;;;;2.53;1.97;;;;;;;;;;5113895;28;20458;-77
2023/07/30 13:56:50;;;;;;;2.57;1.63;;;;;;;;;;5113079;28;20946;-76
2023/07/30 13:59:17;;;;;;;2.30;2.10;;;;;;;;;;5113224;28;20474;-77
2023/07/30 14:01:44;;;;;;;2.90;2.60;;;;;;;;;;5113587;28;20497;-76
2023/07/30 14:04:11;;;;;;;2.30;2.10;;;;;;;;;;5113790;28;20497;-77
2023/07/30 14:06:40;;;;;;;4.63;1.53;;;;;;;;;;5114008;28;20813;-77
2023/07/30 14:09:07;;;;;;;2.83;1.90;;;;;;;;;;5113973;28;20561;-77
2023/07/30 14:11:34;;;;;;;8.03;2.33;;;;;;;;;;5114245;28;20469;-77
2023/07/30 14:14:01;;;;;;;2.70;2.50;;;;;;;;;;5113861;28;20442;-77
2023/07/30 14:16:28;;;;;;;2.20;2.00;;;;;;;;;;5113805;28;20496;-77
2023/07/30 14:18:55;;;;;;;2.27;1.80;;;;;;;;;;5113606;28;20452;-77
2023/07/30 14:21:23;;;;;;;2.17;1.87;;;;;;;;;;5114171;28;20545;-77
2023/07/30 14:23:51;;;;;;;4.90;2.03;;;;;;;;;;5114227;28;20849;-77
2023/07/30 14:26:18;;;;;;;1.93;1.57;;;;;;;;;;5114311;28;20938;-77
2023/07/30 14:28:45;;;;;;;2.60;2.07;;;;;;;;;;5115229;28;20453;-78
2023/07/30 14:31:14;;;;;;;1.80;1.60;;;;;;;;;;5115351;28;20549;-77
2023/07/30 14:33:41;;;;;;;3.00;1.80;;;;;;;;;;5113178;28;20526;-79
2023/07/30 14:36:10;;;;;;;3.03;1.97;;;;;;;;;;5120296;28;20453;-78
2023/07/30 14:38:38;;;;;;;2.10;1.90;;;;;;;;;;5115464;28;20462;-78
2023/07/30 14:41:08;;;;;;;3.00;1.77;;;;;;;;;;5114007;28;20495;-76
2023/07/30 14:43:35;;;;;;;7.20;2.20;;;;;;;;;;5113934;28;20613;-76
2023/07/30 14:46:02;;;;;;;2.97;2.10;;;;;;;;;;5114228;28;20445;-77